Pagrindinis puslapis
METAR-TAF:

METAR-TAF

Oro uostai :

Stokmarknes, Norvegija

platuma: 68-35N, ilguma: 015-01E, Aukštis: 0 m

Dabartinis oras

Ataskaita buvo paskelbta 3 valandos ir 13 minutes, ne 23:20 UTC
Vėjas 8 kt iš Šiaurės
Temperatūra 10°C
Drėgmė 82%
Slėgis 1019 hPa
Matomumas 10 km arba daugiau
Mažai debesys ne aukštis 1500 ft
Išsisklaidę debesys ne aukštis 2000 ft
Su prošvaistėmis ne aukštis 2500 ft

METAR: ENSK 232320Z 35008KT 9999 FEW015 SCT020 BKN025 10/07 Q1019

Laikas: 04:33 (02:33 UTC)


TAF: trūkstamas

Orai ataskaitas ir orų prognozės (METAR, TAF).

turimą stotys yra geltonos ir raudonos taškus žemėlapyje.

Perkelti pele per norėdami pamatyti stoties vardą.

Tada spustelėkite, norėdami matyti oro stebėjimo ir prognozės.

Norėdami pakeisti žemėlapį: spustelėkite ant žalios mygtukų su juodo kryžiaus žemyn,; žalią mygtuką su brūkšneliu, jei norite nutolinti; arba žalių rodyklių gretimoms žemėlapius.


METAR-TAF: